sensor_id;sensor_type;location;lat;lon;timestamp;P1;durP1;ratioP1;P2;durP2;ratioP2
64375;SDS011;50700;55.416;12.952;2023-03-14T00:01:44;13.35;;;3.10;;
64375;SDS011;50700;55.416;12.952;2023-03-14T00:04:10;21.67;;;3.85;;
64375;SDS011;50700;55.416;12.952;2023-03-14T00:06:37;15.98;;;2.67;;
64375;SDS011;50700;55.416;12.952;2023-03-14T00:09:03;14.02;;;2.38;;
64375;SDS011;50700;55.416;12.952;2023-03-14T00:11:29;12.05;;;2.58;;
64375;SDS011;50700;55.416;12.952;2023-03-14T00:13:56;19.17;;;3.13;;
64375;SDS011;50700;55.416;12.952;2023-03-14T00:16:22;13.20;;;2.72;;
64375;SDS011;50700;55.416;12.952;2023-03-14T00:18:48;13.52;;;2.35;;
64375;SDS011;50700;55.416;12.952;2023-03-14T00:21:14;10.55;;;3.17;;
64375;SDS011;50700;55.416;12.952;2023-03-14T00:23:41;19.13;;;2.97;;
64375;SDS011;50700;55.416;12.952;2023-03-14T00:26:08;14.07;;;2.58;;
64375;SDS011;50700;55.416;12.952;2023-03-14T00:28:35;15.93;;;2.78;;
64375;SDS011;50700;55.416;12.952;2023-03-14T00:31:02;16.65;;;2.50;;
64375;SDS011;50700;55.416;12.952;2023-03-14T00:33:29;11.77;;;2.35;;
64375;SDS011;50700;55.416;12.952;2023-03-14T00:35:56;23.73;;;3.53;;
64375;SDS011;50700;55.416;12.952;2023-03-14T00:38:23;15.10;;;3.13;;
64375;SDS011;50700;55.416;12.952;2023-03-14T00:40:50;12.25;;;2.33;;
64375;SDS011;50700;55.416;12.952;2023-03-14T00:43:16;15.52;;;2.58;;
64375;SDS011;50700;55.416;12.952;2023-03-14T00:45:43;8.00;;;2.25;;
64375;SDS011;50700;55.416;12.952;2023-03-14T00:48:09;23.05;;;3.70;;
64375;SDS011;50700;55.416;12.952;2023-03-14T00:50:35;13.25;;;2.70;;
64375;SDS011;50700;55.416;12.952;2023-03-14T00:53:01;19.00;;;3.20;;
64375;SDS011;50700;55.416;12.952;2023-03-14T00:55:28;17.00;;;2.70;;
64375;SDS011;50700;55.416;12.952;2023-03-14T00:57:54;13.68;;;3.33;;
64375;SDS011;50700;55.416;12.952;2023-03-14T01:00:20;13.52;;;2.40;;
64375;SDS011;50700;55.416;12.952;2023-03-14T01:02:46;12.40;;;3.08;;
64375;SDS011;50700;55.416;12.952;2023-03-14T01:05:12;18.15;;;3.03;;
64375;SDS011;50700;55.416;12.952;2023-03-14T01:07:39;16.60;;;3.05;;
64375;SDS011;50700;55.416;12.952;2023-03-14T01:10:05;19.23;;;3.40;;
64375;SDS011;50700;55.416;12.952;2023-03-14T01:12:32;11.23;;;2.25;;
64375;SDS011;50700;55.416;12.952;2023-03-14T01:14:58;15.13;;;2.38;;
64375;SDS011;50700;55.416;12.952;2023-03-14T01:17:24;23.63;;;3.03;;
64375;SDS011;50700;55.416;12.952;2023-03-14T01:19:50;17.83;;;3.20;;
64375;SDS011;50700;55.416;12.952;2023-03-14T01:22:16;8.25;;;2.35;;
64375;SDS011;50700;55.416;12.952;2023-03-14T01:24:43;13.77;;;2.90;;
64375;SDS011;50700;55.416;12.952;2023-03-14T01:27:09;13.60;;;2.47;;
64375;SDS011;50700;55.416;12.952;2023-03-14T01:29:35;10.80;;;2.70;;
64375;SDS011;50700;55.416;12.952;2023-03-14T01:32:01;16.05;;;2.67;;
64375;SDS011;50700;55.416;12.952;2023-03-14T01:34:27;15.90;;;2.95;;
64375;SDS011;50700;55.416;12.952;2023-03-14T01:36:53;8.93;;;2.33;;
64375;SDS011;50700;55.416;12.952;2023-03-14T01:39:19;14.00;;;2.90;;
64375;SDS011;50700;55.416;12.952;2023-03-14T01:41:46;10.85;;;2.47;;
64375;SDS011;50700;55.416;12.952;2023-03-14T01:44:12;10.05;;;2.45;;
64375;SDS011;50700;55.416;12.952;2023-03-14T01:46:39;12.75;;;2.90;;
64375;SDS011;50700;55.416;12.952;2023-03-14T01:54:06;19.77;;;3.23;;
64375;SDS011;50700;55.416;12.952;2023-03-14T01:56:34;23.10;;;3.88;;
64375;SDS011;50700;55.416;12.952;2023-03-14T01:59:01;15.18;;;3.20;;
64375;SDS011;50700;55.416;12.952;2023-03-14T02:01:29;11.63;;;2.75;;
64375;SDS011;50700;55.416;12.952;2023-03-14T02:03:56;12.02;;;2.50;;
64375;SDS011;50700;55.416;12.952;2023-03-14T02:06:27;13.57;;;2.65;;
64375;SDS011;50700;55.416;12.952;2023-03-14T02:08:55;15.10;;;2.78;;
64375;SDS011;50700;55.416;12.952;2023-03-14T02:11:21;11.30;;;2.75;;
64375;SDS011;50700;55.416;12.952;2023-03-14T02:13:47;12.02;;;2.65;;
64375;SDS011;50700;55.416;12.952;2023-03-14T02:16:14;11.50;;;2.47;;
64375;SDS011;50700;55.416;12.952;2023-03-14T02:18:40;11.85;;;2.25;;
64375;SDS011;50700;55.416;12.952;2023-03-14T02:21:12;12.57;;;2.20;;
64375;SDS011;50700;55.416;12.952;2023-03-14T02:23:49;10.18;;;2.67;;
64375;SDS011;50700;55.416;12.952;2023-03-14T02:26:27;10.35;;;2.55;;
64375;SDS011;50700;55.416;12.952;2023-03-14T02:28:56;9.70;;;2.20;;
64375;SDS011;50700;55.416;12.952;2023-03-14T02:31:23;10.55;;;2.67;;
64375;SDS011;50700;55.416;12.952;2023-03-14T02:33:49;11.15;;;3.95;;
64375;SDS011;50700;55.416;12.952;2023-03-14T02:36:16;14.43;;;2.60;;
64375;SDS011;50700;55.416;12.952;2023-03-14T02:41:09;14.48;;;3.45;;
64375;SDS011;50700;55.416;12.952;2023-03-14T02:43:35;17.02;;;3.30;;
64375;SDS011;50700;55.416;12.952;2023-03-14T02:46:02;10.10;;;2.15;;
64375;SDS011;50700;55.416;12.952;2023-03-14T02:48:34;11.63;;;2.50;;
64375;SDS011;50700;55.416;12.952;2023-03-14T02:51:01;8.00;;;1.90;;
64375;SDS011;50700;55.416;12.952;2023-03-14T02:53:29;9.88;;;2.35;;
64375;SDS011;50700;55.416;12.952;2023-03-14T02:55:56;13.18;;;2.75;;
64375;SDS011;50700;55.416;12.952;2023-03-14T02:58:23;12.73;;;2.22;;
64375;SDS011;50700;55.416;12.952;2023-03-14T03:00:49;17.23;;;2.75;;
64375;SDS011;50700;55.416;12.952;2023-03-14T03:03:15;16.10;;;3.22;;
64375;SDS011;50700;55.416;12.952;2023-03-14T03:05:41;22.67;;;3.13;;
64375;SDS011;50700;55.416;12.952;2023-03-14T03:08:09;13.60;;;3.20;;
64375;SDS011;50700;55.416;12.952;2023-03-14T03:10:35;12.50;;;2.75;;
64375;SDS011;50700;55.416;12.952;2023-03-14T03:13:01;9.18;;;2.67;;
64375;SDS011;50700;55.416;12.952;2023-03-14T03:15:28;9.02;;;2.35;;
64375;SDS011;50700;55.416;12.952;2023-03-14T03:17:54;10.95;;;2.65;;
64375;SDS011;50700;55.416;12.952;2023-03-14T03:20:20;11.85;;;2.60;;
64375;SDS011;50700;55.416;12.952;2023-03-14T03:22:46;10.02;;;2.53;;
64375;SDS011;50700;55.416;12.952;2023-03-14T03:25:13;9.55;;;2.85;;
64375;SDS011;50700;55.416;12.952;2023-03-14T03:27:40;13.43;;;2.55;;
64375;SDS011;50700;55.416;12.952;2023-03-14T03:30:07;14.70;;;2.53;;
64375;SDS011;50700;55.416;12.952;2023-03-14T03:32:33;10.98;;;2.80;;
64375;SDS011;50700;55.416;12.952;2023-03-14T03:35:00;9.55;;;3.17;;
64375;SDS011;50700;55.416;12.952;2023-03-14T03:37:26;8.85;;;2.67;;
64375;SDS011;50700;55.416;12.952;2023-03-14T03:39:52;14.27;;;3.00;;
64375;SDS011;50700;55.416;12.952;2023-03-14T03:42:18;8.00;;;2.80;;
64375;SDS011;50700;55.416;12.952;2023-03-14T03:44:44;11.50;;;2.60;;
64375;SDS011;50700;55.416;12.952;2023-03-14T03:47:11;13.50;;;2.67;;
64375;SDS011;50700;55.416;12.952;2023-03-14T03:49:37;8.13;;;2.50;;
64375;SDS011;50700;55.416;12.952;2023-03-14T03:52:03;8.25;;;2.55;;
64375;SDS011;50700;55.416;12.952;2023-03-14T03:54:29;9.68;;;2.83;;
64375;SDS011;50700;55.416;12.952;2023-03-14T03:56:55;14.13;;;2.78;;
64375;SDS011;50700;55.416;12.952;2023-03-14T03:59:22;13.45;;;3.20;;
64375;SDS011;50700;55.416;12.952;2023-03-14T04:01:48;11.05;;;2.72;;
64375;SDS011;50700;55.416;12.952;2023-03-14T04:04:14;13.82;;;2.90;;
64375;SDS011;50700;55.416;12.952;2023-03-14T04:06:40;14.52;;;3.00;;
64375;SDS011;50700;55.416;12.952;2023-03-14T04:09:07;7.93;;;2.20;;
64375;SDS011;50700;55.416;12.952;2023-03-14T04:11:33;9.73;;;3.45;;
64375;SDS011;50700;55.416;12.952;2023-03-14T04:14:00;5.97;;;2.30;;
64375;SDS011;50700;55.416;12.952;2023-03-14T04:16:26;7.05;;;2.08;;
64375;SDS011;50700;55.416;12.952;2023-03-14T04:18:52;8.82;;;3.00;;
64375;SDS011;50700;55.416;12.952;2023-03-14T04:21:19;7.68;;;2.83;;
64375;SDS011;50700;55.416;12.952;2023-03-14T04:23:45;12.40;;;2.90;;
64375;SDS011;50700;55.416;12.952;2023-03-14T04:26:11;7.15;;;2.20;;
64375;SDS011;50700;55.416;12.952;2023-03-14T04:28:37;7.68;;;2.45;;
64375;SDS011;50700;55.416;12.952;2023-03-14T04:31:07;11.35;;;2.47;;
64375;SDS011;50700;55.416;12.952;2023-03-14T04:33:34;11.15;;;2.70;;
64375;SDS011;50700;55.416;12.952;2023-03-14T04:36:01;8.68;;;3.17;;
64375;SDS011;50700;55.416;12.952;2023-03-14T04:38:27;9.73;;;2.75;;
64375;SDS011;50700;55.416;12.952;2023-03-14T04:40:53;8.07;;;3.00;;
64375;SDS011;50700;55.416;12.952;2023-03-14T04:43:19;6.28;;;2.53;;
64375;SDS011;50700;55.416;12.952;2023-03-14T04:45:45;8.43;;;2.85;;
64375;SDS011;50700;55.416;12.952;2023-03-14T04:48:12;14.90;;;2.70;;
64375;SDS011;50700;55.416;12.952;2023-03-14T04:50:38;9.48;;;2.72;;
64375;SDS011;50700;55.416;12.952;2023-03-14T04:53:04;8.30;;;2.47;;
64375;SDS011;50700;55.416;12.952;2023-03-14T04:55:31;5.68;;;2.40;;
64375;SDS011;50700;55.416;12.952;2023-03-14T04:57:59;8.18;;;2.88;;
64375;SDS011;50700;55.416;12.952;2023-03-14T05:00:26;9.23;;;3.05;;
64375;SDS011;50700;55.416;12.952;2023-03-14T05:02:52;7.38;;;2.78;;
64375;SDS011;50700;55.416;12.952;2023-03-14T05:05:18;6.88;;;3.08;;
64375;SDS011;50700;55.416;12.952;2023-03-14T05:07:44;12.00;;;2.88;;
64375;SDS011;50700;55.416;12.952;2023-03-14T05:10:11;6.90;;;2.72;;
64375;SDS011;50700;55.416;12.952;2023-03-14T05:12:37;8.65;;;2.60;;
64375;SDS011;50700;55.416;12.952;2023-03-14T05:15:03;8.57;;;3.10;;
64375;SDS011;50700;55.416;12.952;2023-03-14T05:17:30;12.82;;;3.03;;
64375;SDS011;50700;55.416;12.952;2023-03-14T05:19:56;10.45;;;2.92;;
64375;SDS011;50700;55.416;12.952;2023-03-14T05:22:22;6.75;;;2.47;;
64375;SDS011;50700;55.416;12.952;2023-03-14T05:24:48;8.23;;;2.50;;
64375;SDS011;50700;55.416;12.952;2023-03-14T05:27:14;13.45;;;3.03;;
64375;SDS011;50700;55.416;12.952;2023-03-14T05:29:40;9.25;;;2.63;;
64375;SDS011;50700;55.416;12.952;2023-03-14T05:32:06;8.20;;;2.75;;
64375;SDS011;50700;55.416;12.952;2023-03-14T05:34:33;9.02;;;2.67;;
64375;SDS011;50700;55.416;12.952;2023-03-14T05:36:59;12.45;;;3.38;;
64375;SDS011;50700;55.416;12.952;2023-03-14T05:39:25;6.30;;;2.83;;
64375;SDS011;50700;55.416;12.952;2023-03-14T05:41:52;10.93;;;2.65;;
64375;SDS011;50700;55.416;12.952;2023-03-14T05:44:21;9.35;;;3.03;;
64375;SDS011;50700;55.416;12.952;2023-03-14T05:46:47;9.18;;;3.08;;
64375;SDS011;50700;55.416;12.952;2023-03-14T05:49:13;9.23;;;3.03;;
64375;SDS011;50700;55.416;12.952;2023-03-14T05:51:39;8.48;;;3.00;;
64375;SDS011;50700;55.416;12.952;2023-03-14T05:54:06;9.65;;;3.60;;
64375;SDS011;50700;55.416;12.952;2023-03-14T05:56:32;7.40;;;2.90;;
64375;SDS011;50700;55.416;12.952;2023-03-14T05:58:58;7.68;;;2.78;;
64375;SDS011;50700;55.416;12.952;2023-03-14T06:01:27;6.90;;;3.13;;
64375;SDS011;50700;55.416;12.952;2023-03-14T06:03:53;7.60;;;2.95;;
64375;SDS011;50700;55.416;12.952;2023-03-14T06:06:19;8.65;;;2.78;;
64375;SDS011;50700;55.416;12.952;2023-03-14T06:08:46;10.13;;;3.22;;
64375;SDS011;50700;55.416;12.952;2023-03-14T06:11:12;11.15;;;3.22;;
64375;SDS011;50700;55.416;12.952;2023-03-14T06:13:38;10.30;;;3.17;;
64375;SDS011;50700;55.416;12.952;2023-03-14T06:16:05;11.13;;;3.03;;
64375;SDS011;50700;55.416;12.952;2023-03-14T06:18:31;7.57;;;2.83;;
64375;SDS011;50700;55.416;12.952;2023-03-14T06:20:57;10.05;;;2.92;;
64375;SDS011;50700;55.416;12.952;2023-03-14T06:23:23;12.50;;;3.40;;
64375;SDS011;50700;55.416;12.952;2023-03-14T06:25:50;10.80;;;3.17;;
64375;SDS011;50700;55.416;12.952;2023-03-14T06:28:16;7.28;;;2.85;;
64375;SDS011;50700;55.416;12.952;2023-03-14T06:30:43;11.68;;;2.72;;
64375;SDS011;50700;55.416;12.952;2023-03-14T06:33:09;5.93;;;2.85;;
64375;SDS011;50700;55.416;12.952;2023-03-14T06:35:36;6.15;;;3.22;;
64375;SDS011;50700;55.416;12.952;2023-03-14T06:38:02;6.50;;;2.65;;
64375;SDS011;50700;55.416;12.952;2023-03-14T06:40:29;6.28;;;2.72;;
64375;SDS011;50700;55.416;12.952;2023-03-14T06:42:55;9.77;;;2.97;;
64375;SDS011;50700;55.416;12.952;2023-03-14T06:45:22;10.77;;;4.47;;
64375;SDS011;50700;55.416;12.952;2023-03-14T06:47:48;10.30;;;3.63;;
64375;SDS011;50700;55.416;12.952;2023-03-14T06:50:14;5.25;;;2.65;;
64375;SDS011;50700;55.416;12.952;2023-03-14T06:52:41;10.15;;;3.65;;
64375;SDS011;50700;55.416;12.952;2023-03-14T06:55:13;7.72;;;3.08;;
64375;SDS011;50700;55.416;12.952;2023-03-14T06:57:39;8.73;;;3.33;;
64375;SDS011;50700;55.416;12.952;2023-03-14T07:00:06;13.38;;;3.42;;
64375;SDS011;50700;55.416;12.952;2023-03-14T07:02:32;5.00;;;2.85;;
64375;SDS011;50700;55.416;12.952;2023-03-14T07:04:58;14.73;;;3.75;;
64375;SDS011;50700;55.416;12.952;2023-03-14T07:07:26;7.40;;;3.00;;
64375;SDS011;50700;55.416;12.952;2023-03-14T07:09:52;9.15;;;2.95;;
64375;SDS011;50700;55.416;12.952;2023-03-14T07:12:18;6.57;;;3.60;;
64375;SDS011;50700;55.416;12.952;2023-03-14T07:14:45;8.95;;;3.25;;
64375;SDS011;50700;55.416;12.952;2023-03-14T07:17:11;14.15;;;3.25;;
64375;SDS011;50700;55.416;12.952;2023-03-14T07:19:37;6.30;;;2.67;;
64375;SDS011;50700;55.416;12.952;2023-03-14T07:22:06;10.80;;;3.30;;
64375;SDS011;50700;55.416;12.952;2023-03-14T07:24:32;7.15;;;2.80;;
64375;SDS011;50700;55.416;12.952;2023-03-14T07:26:58;10.32;;;3.08;;
64375;SDS011;50700;55.416;12.952;2023-03-14T07:29:25;5.15;;;2.80;;
64375;SDS011;50700;55.416;12.952;2023-03-14T07:31:51;5.32;;;2.90;;
64375;SDS011;50700;55.416;12.952;2023-03-14T07:34:17;6.65;;;3.00;;
64375;SDS011;50700;55.416;12.952;2023-03-14T07:36:44;9.45;;;3.30;;
64375;SDS011;50700;55.416;12.952;2023-03-14T07:39:10;7.20;;;2.85;;
64375;SDS011;50700;55.416;12.952;2023-03-14T07:41:37;10.02;;;3.35;;
64375;SDS011;50700;55.416;12.952;2023-03-14T07:44:03;7.45;;;2.67;;
64375;SDS011;50700;55.416;12.952;2023-03-14T07:46:29;5.93;;;2.78;;
64375;SDS011;50700;55.416;12.952;2023-03-14T07:48:55;8.75;;;2.80;;
64375;SDS011;50700;55.416;12.952;2023-03-14T07:51:21;3.53;;;2.60;;
64375;SDS011;50700;55.416;12.952;2023-03-14T07:53:48;15.65;;;3.20;;
64375;SDS011;50700;55.416;12.952;2023-03-14T07:56:14;9.95;;;2.90;;
64375;SDS011;50700;55.416;12.952;2023-03-14T07:58:40;7.20;;;2.58;;
64375;SDS011;50700;55.416;12.952;2023-03-14T08:01:06;13.60;;;3.08;;
64375;SDS011;50700;55.416;12.952;2023-03-14T08:03:32;6.93;;;2.92;;
64375;SDS011;50700;55.416;12.952;2023-03-14T08:05:59;7.80;;;2.95;;
64375;SDS011;50700;55.416;12.952;2023-03-14T08:08:25;11.00;;;2.63;;
64375;SDS011;50700;55.416;12.952;2023-03-14T08:10:51;4.10;;;2.90;;
64375;SDS011;50700;55.416;12.952;2023-03-14T08:13:17;7.35;;;2.83;;
64375;SDS011;50700;55.416;12.952;2023-03-14T08:15:46;9.68;;;3.42;;
64375;SDS011;50700;55.416;12.952;2023-03-14T08:18:13;8.02;;;3.00;;
64375;SDS011;50700;55.416;12.952;2023-03-14T08:20:39;9.93;;;3.70;;
64375;SDS011;50700;55.416;12.952;2023-03-14T08:23:05;4.80;;;2.58;;
64375;SDS011;50700;55.416;12.952;2023-03-14T08:25:31;7.82;;;3.97;;
64375;SDS011;50700;55.416;12.952;2023-03-14T08:27:58;5.97;;;2.50;;
64375;SDS011;50700;55.416;12.952;2023-03-14T08:30:24;7.43;;;3.35;;
64375;SDS011;50700;55.416;12.952;2023-03-14T08:32:50;9.43;;;3.10;;
64375;SDS011;50700;55.416;12.952;2023-03-14T08:35:17;4.95;;;2.55;;
64375;SDS011;50700;55.416;12.952;2023-03-14T08:37:43;7.78;;;2.70;;
64375;SDS011;50700;55.416;12.952;2023-03-14T08:40:09;7.28;;;2.70;;
64375;SDS011;50700;55.416;12.952;2023-03-14T08:42:37;3.70;;;1.98;;
64375;SDS011;50700;55.416;12.952;2023-03-14T08:45:03;5.78;;;2.42;;
64375;SDS011;50700;55.416;12.952;2023-03-14T08:47:30;4.28;;;2.50;;
64375;SDS011;50700;55.416;12.952;2023-03-14T08:49:56;3.50;;;2.33;;
64375;SDS011;50700;55.416;12.952;2023-03-14T08:52:22;6.18;;;2.92;;
64375;SDS011;50700;55.416;12.952;2023-03-14T08:54:48;5.65;;;2.15;;
64375;SDS011;50700;55.416;12.952;2023-03-14T08:57:15;5.97;;;2.28;;
64375;SDS011;50700;55.416;12.952;2023-03-14T08:59:41;8.85;;;1.90;;
64375;SDS011;50700;55.416;12.952;2023-03-14T09:02:10;6.97;;;2.30;;
64375;SDS011;50700;55.416;12.952;2023-03-14T09:04:37;8.07;;;2.22;;
64375;SDS011;50700;55.416;12.952;2023-03-14T09:07:03;7.63;;;2.58;;
64375;SDS011;50700;55.416;12.952;2023-03-14T09:09:29;5.57;;;2.33;;
64375;SDS011;50700;55.416;12.952;2023-03-14T09:11:56;3.25;;;2.10;;
64375;SDS011;50700;55.416;12.952;2023-03-14T09:14:23;6.78;;;2.20;;
64375;SDS011;50700;55.416;12.952;2023-03-14T09:16:49;4.90;;;1.55;;
64375;SDS011;50700;55.416;12.952;2023-03-14T09:19:16;6.50;;;2.30;;
64375;SDS011;50700;55.416;12.952;2023-03-14T09:21:42;11.02;;;2.10;;
64375;SDS011;50700;55.416;12.952;2023-03-14T09:24:08;5.65;;;2.33;;
64375;SDS011;50700;55.416;12.952;2023-03-14T09:26:34;11.60;;;2.33;;
64375;SDS011;50700;55.416;12.952;2023-03-14T09:29:00;6.55;;;2.30;;
64375;SDS011;50700;55.416;12.952;2023-03-14T09:31:27;5.78;;;2.55;;
64375;SDS011;50700;55.416;12.952;2023-03-14T09:33:54;3.42;;;2.30;;
64375;SDS011;50700;55.416;12.952;2023-03-14T09:36:20;5.97;;;2.42;;
64375;SDS011;50700;55.416;12.952;2023-03-14T09:38:47;6.53;;;2.22;;
64375;SDS011;50700;55.416;12.952;2023-03-14T09:41:31;5.07;;;2.17;;
64375;SDS011;50700;55.416;12.952;2023-03-14T09:46:28;10.65;;;2.33;;
64375;SDS011;50700;55.416;12.952;2023-03-14T09:48:55;12.93;;;3.00;;
64375;SDS011;50700;55.416;12.952;2023-03-14T09:51:21;8.60;;;2.50;;
64375;SDS011;50700;55.416;12.952;2023-03-14T09:53:49;5.10;;;2.25;;
64375;SDS011;50700;55.416;12.952;2023-03-14T09:56:23;8.15;;;2.80;;
64375;SDS011;50700;55.416;12.952;2023-03-14T09:58:54;7.72;;;2.35;;
64375;SDS011;50700;55.416;12.952;2023-03-14T10:01:24;7.28;;;2.67;;
64375;SDS011;50700;55.416;12.952;2023-03-14T10:03:51;3.50;;;1.65;;
64375;SDS011;50700;55.416;12.952;2023-03-14T10:06:19;10.65;;;2.60;;
64375;SDS011;50700;55.416;12.952;2023-03-14T10:08:46;3.92;;;0.90;;
64375;SDS011;50700;55.416;12.952;2023-03-14T10:11:16;6.20;;;1.10;;
64375;SDS011;50700;55.416;12.952;2023-03-14T10:13:49;1.00;;;0.90;;
64375;SDS011;50700;55.416;12.952;2023-03-14T10:16:16;6.13;;;1.10;;
64375;SDS011;50700;55.416;12.952;2023-03-14T10:18:46;3.40;;;1.25;;
64375;SDS011;50700;55.416;12.952;2023-03-14T10:24:26;3.50;;;1.20;;
64375;SDS011;50700;55.416;12.952;2023-03-14T10:26:54;5.82;;;1.65;;
64375;SDS011;50700;55.416;12.952;2023-03-14T10:29:23;4.88;;;1.63;;
64375;SDS011;50700;55.416;12.952;2023-03-14T10:31:53;1.40;;;1.10;;
64375;SDS011;50700;55.416;12.952;2023-03-14T10:34:24;8.48;;;1.58;;
64375;SDS011;50700;55.416;12.952;2023-03-14T10:36:58;3.13;;;1.20;;
64375;SDS011;50700;55.416;12.952;2023-03-14T10:39:26;8.13;;;1.67;;
64375;SDS011;50700;55.416;12.952;2023-03-14T10:41:54;15.15;;;1.70;;
64375;SDS011;50700;55.416;12.952;2023-03-14T10:44:23;9.05;;;1.52;;
64375;SDS011;50700;55.416;12.952;2023-03-14T10:46:58;19.80;;;3.13;;
64375;SDS011;50700;55.416;12.952;2023-03-14T10:49:26;3.67;;;1.42;;
64375;SDS011;50700;55.416;12.952;2023-03-14T10:51:53;3.17;;;1.55;;
64375;SDS011;50700;55.416;12.952;2023-03-14T10:54:20;5.93;;;1.60;;
64375;SDS011;50700;55.416;12.952;2023-03-14T10:56:56;9.32;;;1.67;;
64375;SDS011;50700;55.416;12.952;2023-03-14T10:59:22;9.05;;;2.10;;
64375;SDS011;50700;55.416;12.952;2023-03-14T11:07:04;5.20;;;1.48;;
64375;SDS011;50700;55.416;12.952;2023-03-14T11:09:38;6.63;;;1.60;;
64375;SDS011;50700;55.416;12.952;2023-03-14T11:12:16;4.10;;;1.40;;
64375;SDS011;50700;55.416;12.952;2023-03-14T11:14:46;10.77;;;1.42;;
64375;SDS011;50700;55.416;12.952;2023-03-14T11:20:11;5.40;;;1.08;;
64375;SDS011;50700;55.416;12.952;2023-03-14T11:22:41;2.63;;;0.80;;
64375;SDS011;50700;55.416;12.952;2023-03-14T11:27:47;2.17;;;1.00;;
64375;SDS011;50700;55.416;12.952;2023-03-14T11:30:18;0.65;;;0.65;;
64375;SDS011;50700;55.416;12.952;2023-03-14T11:35:16;2.75;;;1.00;;
64375;SDS011;50700;55.416;12.952;2023-03-14T11:37:45;6.30;;;0.90;;
64375;SDS011;50700;55.416;12.952;2023-03-14T11:40:23;2.65;;;0.98;;
64375;SDS011;50700;55.416;12.952;2023-03-14T11:45:35;1.65;;;0.88;;
64375;SDS011;50700;55.416;12.952;2023-03-14T11:48:13;7.45;;;1.00;;
64375;SDS011;50700;55.416;12.952;2023-03-14T11:50:42;3.28;;;0.90;;
64375;SDS011;50700;55.416;12.952;2023-03-14T11:53:43;6.43;;;1.25;;
64375;SDS011;50700;55.416;12.952;2023-03-14T11:56:01;3.83;;;0.98;;
64375;SDS011;50700;55.416;12.952;2023-03-14T11:58:29;3.55;;;1.10;;
64375;SDS011;50700;55.416;12.952;2023-03-14T12:00:57;7.22;;;1.50;;
64375;SDS011;50700;55.416;12.952;2023-03-14T12:06:22;4.45;;;1.35;;
64375;SDS011;50700;55.416;12.952;2023-03-14T12:08:52;1.33;;;0.77;;
64375;SDS011;50700;55.416;12.952;2023-03-14T12:11:27;2.47;;;0.90;;
64375;SDS011;50700;55.416;12.952;2023-03-14T12:13:55;3.50;;;1.00;;
64375;SDS011;50700;55.416;12.952;2023-03-14T12:18:53;2.88;;;1.10;;
64375;SDS011;50700;55.416;12.952;2023-03-14T12:21:19;3.03;;;0.60;;
64375;SDS011;50700;55.416;12.952;2023-03-14T12:26:17;7.53;;;0.80;;
64375;SDS011;50700;55.416;12.952;2023-03-14T12:28:44;3.63;;;1.33;;
64375;SDS011;50700;55.416;12.952;2023-03-14T12:41:53;7.25;;;1.27;;
64375;SDS011;50700;55.416;12.952;2023-03-14T12:46:58;6.43;;;1.30;;
64375;SDS011;50700;55.416;12.952;2023-03-14T12:49:31;11.82;;;1.30;;
64375;SDS011;50700;55.416;12.952;2023-03-14T12:51:59;3.60;;;1.05;;
64375;SDS011;50700;55.416;12.952;2023-03-14T12:57:13;4.03;;;0.70;;
64375;SDS011;50700;55.416;12.952;2023-03-14T12:59:45;3.47;;;1.50;;
64375;SDS011;50700;55.416;12.952;2023-03-14T13:07:12;2.60;;;1.17;;
64375;SDS011;50700;55.416;12.952;2023-03-14T13:09:55;8.88;;;1.35;;
64375;SDS011;50700;55.416;12.952;2023-03-14T13:12:27;7.55;;;1.58;;
64375;SDS011;50700;55.416;12.952;2023-03-14T13:14:57;5.90;;;1.20;;
64375;SDS011;50700;55.416;12.952;2023-03-14T13:17:29;14.02;;;2.00;;
64375;SDS011;50700;55.416;12.952;2023-03-14T13:19:57;3.22;;;1.65;;
64375;SDS011;50700;55.416;12.952;2023-03-14T13:22:28;10.55;;;1.23;;
64375;SDS011;50700;55.416;12.952;2023-03-14T13:25:03;10.48;;;1.73;;
64375;SDS011;50700;55.416;12.952;2023-03-14T13:27:30;8.25;;;1.52;;
64375;SDS011;50700;55.416;12.952;2023-03-14T13:29:56;4.07;;;1.30;;
64375;SDS011;50700;55.416;12.952;2023-03-14T13:32:26;4.07;;;1.08;;
64375;SDS011;50700;55.416;12.952;2023-03-14T13:34:57;5.50;;;0.95;;
64375;SDS011;50700;55.416;12.952;2023-03-14T13:37:24;3.90;;;1.23;;
64375;SDS011;50700;55.416;12.952;2023-03-14T13:39:51;8.30;;;1.42;;
64375;SDS011;50700;55.416;12.952;2023-03-14T13:42:18;8.85;;;1.23;;
64375;SDS011;50700;55.416;12.952;2023-03-14T13:44:45;6.80;;;1.20;;
64375;SDS011;50700;55.416;12.952;2023-03-14T13:47:16;8.27;;;1.48;;
64375;SDS011;50700;55.416;12.952;2023-03-14T13:49:44;3.58;;;0.90;;
64375;SDS011;50700;55.416;12.952;2023-03-14T13:54:52;6.55;;;1.30;;
64375;SDS011;50700;55.416;12.952;2023-03-14T13:57:19;2.65;;;1.45;;
64375;SDS011;50700;55.416;12.952;2023-03-14T13:59:45;7.28;;;1.23;;
64375;SDS011;50700;55.416;12.952;2023-03-14T14:02:24;3.78;;;1.00;;
64375;SDS011;50700;55.416;12.952;2023-03-14T14:04:51;12.95;;;1.52;;
64375;SDS011;50700;55.416;12.952;2023-03-14T14:07:17;5.93;;;1.30;;
64375;SDS011;50700;55.416;12.952;2023-03-14T14:09:50;6.55;;;1.35;;
64375;SDS011;50700;55.416;12.952;2023-03-14T14:12:19;6.80;;;1.33;;
64375;SDS011;50700;55.416;12.952;2023-03-14T14:17:30;3.58;;;1.33;;
64375;SDS011;50700;55.416;12.952;2023-03-14T14:19:57;2.17;;;1.00;;
64375;SDS011;50700;55.416;12.952;2023-03-14T14:22:24;5.88;;;2.15;;
64375;SDS011;50700;55.416;12.952;2023-03-14T14:24:51;2.67;;;1.10;;
64375;SDS011;50700;55.416;12.952;2023-03-14T14:27:19;7.00;;;1.33;;
64375;SDS011;50700;55.416;12.952;2023-03-14T14:30:04;3.05;;;0.95;;
64375;SDS011;50700;55.416;12.952;2023-03-14T14:32:34;6.80;;;1.10;;
64375;SDS011;50700;55.416;12.952;2023-03-14T14:35:00;4.55;;;1.00;;
64375;SDS011;50700;55.416;12.952;2023-03-14T14:37:29;6.40;;;1.15;;
64375;SDS011;50700;55.416;12.952;2023-03-14T14:40:00;4.88;;;1.33;;
64375;SDS011;50700;55.416;12.952;2023-03-14T14:42:32;6.35;;;1.23;;
64375;SDS011;50700;55.416;12.952;2023-03-14T14:44:59;10.52;;;1.52;;
64375;SDS011;50700;55.416;12.952;2023-03-14T14:47:27;8.60;;;1.55;;
64375;SDS011;50700;55.416;12.952;2023-03-14T14:49:54;5.57;;;0.82;;
64375;SDS011;50700;55.416;12.952;2023-03-14T14:52:22;4.82;;;1.50;;
64375;SDS011;50700;55.416;12.952;2023-03-14T14:55:00;7.75;;;1.10;;
64375;SDS011;50700;55.416;12.952;2023-03-14T14:57:28;2.20;;;0.98;;
64375;SDS011;50700;55.416;12.952;2023-03-14T14:59:56;6.03;;;1.30;;
64375;SDS011;50700;55.416;12.952;2023-03-14T15:04:49;3.03;;;0.90;;
64375;SDS011;50700;55.416;12.952;2023-03-14T15:07:15;6.55;;;1.10;;
64375;SDS011;50700;55.416;12.952;2023-03-14T15:09:42;1.85;;;0.77;;
64375;SDS011;50700;55.416;12.952;2023-03-14T15:12:08;7.68;;;1.30;;
64375;SDS011;50700;55.416;12.952;2023-03-14T15:14:34;5.10;;;1.15;;
64375;SDS011;50700;55.416;12.952;2023-03-14T15:17:01;6.47;;;1.45;;
64375;SDS011;50700;55.416;12.952;2023-03-14T15:19:27;8.40;;;1.20;;
64375;SDS011;50700;55.416;12.952;2023-03-14T15:21:55;9.38;;;1.30;;
64375;SDS011;50700;55.416;12.952;2023-03-14T15:24:21;5.65;;;1.08;;
64375;SDS011;50700;55.416;12.952;2023-03-14T15:26:47;3.60;;;0.85;;
64375;SDS011;50700;55.416;12.952;2023-03-14T15:29:14;2.05;;;0.98;;
64375;SDS011;50700;55.416;12.952;2023-03-14T15:31:40;4.60;;;1.55;;
64375;SDS011;50700;55.416;12.952;2023-03-14T15:34:09;7.50;;;1.08;;
64375;SDS011;50700;55.416;12.952;2023-03-14T15:36:36;3.05;;;1.10;;
64375;SDS011;50700;55.416;12.952;2023-03-14T15:39:03;6.13;;;0.90;;